Time;durP1;ratioP1;P1;durP2;ratioP2;P2;SDS_P1;SDS_P2;PMS_P1;PMS_P2;Temp;Humidity;BMP_temperature;BMP_pressure;BME280_temperature;BME280_humidity;BME280_pressure;Samples;Min_cycle;Max_cycle;Signal;HPM_P1;HPM_P2
2024/01/29 00:00:03;;;;;;;3.00;1.50;;;9.30;81.90;;;;;;5070130;28;20446;-85
2024/01/29 00:02:30;;;;;;;4.83;1.60;;;9.20;83.40;;;;;;5074654;28;20902;-84
2024/01/29 00:04:57;;;;;;;3.07;1.50;;;9.10;81.80;;;;;;5067694;28;20511;-84
2024/01/29 00:07:23;;;;;;;2.90;1.93;;;9.30;78.90;;;;;;5074097;28;20479;-85
2024/01/29 00:09:50;;;;;;;2.60;1.70;;;9.40;80.40;;;;;;5067505;28;20554;-85
2024/01/29 00:12:17;;;;;;;2.67;1.57;;;9.40;79.50;;;;;;5072525;28;20473;-85
2024/01/29 00:14:46;;;;;;;3.93;2.00;;;9.50;79.10;;;;;;5073373;28;20547;-82
2024/01/29 00:17:14;;;;;;;1.93;1.20;;;9.50;77.20;;;;;;5071960;28;20462;-83
2024/01/29 00:19:41;;;;;;;3.00;1.50;;;9.60;77.30;;;;;;5076777;28;20460;-84
2024/01/29 00:22:08;;;;;;;2.10;1.30;;;9.60;79.20;;;;;;5075350;28;20464;-84
2024/01/29 00:24:35;;;;;;;2.73;1.37;;;9.60;77.60;;;;;;5076825;28;20469;-83
2024/01/29 00:27:02;;;;;;;2.33;1.50;;;9.70;78.00;;;;;;5075613;28;20447;-82
2024/01/29 00:29:28;;;;;;;4.00;1.60;;;9.60;78.60;;;;;;5071709;28;20479;-85
2024/01/29 00:31:58;;;;;;;3.20;1.47;;;9.50;79.80;;;;;;5075861;28;20535;-84
2024/01/29 00:34:24;;;;;;;2.70;1.60;;;9.50;81.80;;;;;;5068308;28;20525;-84
2024/01/29 00:36:51;;;;;;;2.30;1.30;;;9.30;82.40;;;;;;5071662;28;20470;-84
2024/01/29 00:39:18;;;;;;;3.20;1.57;;;9.30;79.60;;;;;;5075196;28;20474;-84
2024/01/29 00:41:45;;;;;;;2.90;1.50;;;9.20;82.60;;;;;;5074205;28;20447;-84
2024/01/29 00:44:12;;;;;;;3.10;1.90;;;9.30;79.90;;;;;;5075433;28;20513;-84
2024/01/29 00:46:40;;;;;;;7.60;1.83;;;9.20;79.00;;;;;;5072065;28;20482;-84
2024/01/29 00:49:08;;;;;;;3.20;1.63;;;9.20;80.60;;;;;;5070036;28;20858;-83
2024/01/29 00:51:36;;;;;;;3.23;1.87;;;9.30;78.40;;;;;;5071726;28;20452;-85
2024/01/29 00:54:04;;;;;;;3.50;1.07;;;9.30;82.50;;;;;;5076856;28;20831;-84
2024/01/29 00:56:31;;;;;;;3.50;1.80;;;9.20;78.60;;;;;;5077061;28;20503;-84
2024/01/29 00:58:58;;;;;;;2.93;1.43;;;9.20;80.40;;;;;;5072005;28;20459;-85
2024/01/29 01:01:25;;;;;;;3.00;1.90;;;9.10;82.30;;;;;;5079234;28;20921;-85
2024/01/29 01:03:51;;;;;;;3.30;2.00;;;9.10;81.60;;;;;;5075311;28;20835;-85
2024/01/29 01:06:19;;;;;;;3.20;1.80;;;9.10;82.70;;;;;;5088199;28;20466;-84
2024/01/29 01:08:47;;;;;;;3.20;1.93;;;9.10;79.10;;;;;;5084949;28;20481;-85
2024/01/29 01:11:13;;;;;;;1.70;1.40;;;9.10;81.20;;;;;;5091487;28;20462;-83
2024/01/29 01:13:40;;;;;;;3.67;1.47;;;9.00;82.40;;;;;;5088963;28;20477;-85
2024/01/29 01:16:07;;;;;;;2.37;1.33;;;8.90;84.90;;;;;;5080347;28;20526;-84
2024/01/29 01:18:34;;;;;;;2.57;1.40;;;8.70;83.70;;;;;;5079888;28;20482;-85
2024/01/29 01:21:01;;;;;;;2.90;1.50;;;8.70;82.20;;;;;;5076576;28;20545;-83
2024/01/29 01:23:29;;;;;;;3.47;1.53;;;8.70;83.00;;;;;;5082127;28;20989;-84
2024/01/29 01:25:56;;;;;;;2.97;1.70;;;8.60;84.40;;;;;;5079602;28;20845;-83
2024/01/29 01:28:23;;;;;;;2.80;2.30;;;8.50;86.50;;;;;;5072431;28;20576;-84
2024/01/29 01:30:50;;;;;;;2.30;1.40;;;8.50;87.30;;;;;;5080297;28;20487;-83
2024/01/29 01:33:16;;;;;;;2.10;1.50;;;8.40;83.90;;;;;;5072615;28;20904;-84
2024/01/29 01:35:43;;;;;;;2.30;1.40;;;8.60;82.20;;;;;;5075747;28;20458;-84
2024/01/29 01:38:10;;;;;;;3.43;1.60;;;8.70;83.70;;;;;;5078951;28;20525;-84
2024/01/29 01:40:38;;;;;;;2.33;1.30;;;8.80;83.10;;;;;;5080455;28;20550;-82
2024/01/29 01:43:18;;;;;;;2.83;1.40;;;8.70;85.40;;;;;;5080094;28;20556;-84
2024/01/29 01:45:45;;;;;;;2.40;1.40;;;8.80;82.40;;;;;;5073939;28;20454;-83
2024/01/29 01:48:13;;;;;;;2.17;1.50;;;8.80;85.50;;;;;;5076570;28;20482;-83
2024/01/29 01:50:41;;;;;;;2.50;1.37;;;8.80;85.20;;;;;;5078202;28;20529;-84
2024/01/29 01:53:08;;;;;;;3.57;1.83;;;8.80;82.80;;;;;;5078856;28;20486;-83
2024/01/29 01:55:35;;;;;;;2.40;1.37;;;8.80;85.50;;;;;;5077994;28;20547;-83
2024/01/29 01:58:08;;;;;;;5.00;1.70;;;8.80;83.30;;;;;;5078536;28;20850;-83
2024/01/29 02:00:35;;;;;;;5.13;1.77;;;8.90;82.80;;;;;;5078141;28;20990;-82
2024/01/29 02:03:03;;;;;;;2.50;1.70;;;8.80;86.10;;;;;;5077297;28;20451;-83
2024/01/29 02:05:30;;;;;;;3.20;1.50;;;8.70;86.20;;;;;;5072288;28;20493;-83
2024/01/29 02:07:57;;;;;;;3.67;1.87;;;8.60;87.50;;;;;;5079375;28;20550;-84
2024/01/29 02:10:30;;;;;;;5.47;1.83;;;8.60;88.30;;;;;;5079657;28;20577;-83
2024/01/29 02:12:57;;;;;;;3.93;1.73;;;8.50;88.90;;;;;;5078622;28;20540;-84
2024/01/29 02:15:25;;;;;;;3.23;1.83;;;8.40;87.70;;;;;;5079903;28;20468;-82
2024/01/29 02:17:52;;;;;;;2.37;1.20;;;8.40;88.80;;;;;;5080295;28;20913;-83
2024/01/29 02:20:20;;;;;;;3.13;1.80;;;8.40;85.80;;;;;;5078182;28;20459;-83
2024/01/29 02:22:49;;;;;;;3.60;1.43;;;8.50;86.10;;;;;;5076995;28;20464;-82
2024/01/29 02:25:15;;;;;;;2.80;1.60;;;8.50;88.20;;;;;;5075461;28;20461;-81
2024/01/29 02:27:42;;;;;;;3.27;1.87;;;8.40;89.10;;;;;;5075360;28;20568;-83
2024/01/29 02:30:10;;;;;;;2.57;1.63;;;8.30;90.60;;;;;;5072460;28;20497;-83
2024/01/29 02:32:37;;;;;;;2.07;1.47;;;8.30;90.10;;;;;;5074863;28;20465;-81
2024/01/29 02:35:04;;;;;;;2.50;1.80;;;8.30;90.80;;;;;;5074640;28;20465;-81
2024/01/29 02:37:31;;;;;;;3.03;1.60;;;8.20;90.60;;;;;;5075131;28;20553;-83
2024/01/29 02:39:59;;;;;;;3.50;2.00;;;8.30;89.80;;;;;;5075596;28;20445;-83
2024/01/29 02:42:26;;;;;;;2.57;1.70;;;8.30;88.90;;;;;;5074822;28;20981;-83
2024/01/29 02:44:56;;;;;;;3.10;1.60;;;8.30;91.10;;;;;;5074928;28;20515;-83
2024/01/29 02:47:22;;;;;;;3.17;1.50;;;8.40;89.40;;;;;;5075233;28;20464;-82
2024/01/29 02:49:49;;;;;;;3.30;2.03;;;8.40;91.30;;;;;;5069344;28;20574;-83
2024/01/29 02:52:16;;;;;;;2.90;1.40;;;8.40;89.80;;;;;;5073275;28;20466;-83
2024/01/29 02:54:46;;;;;;;2.83;1.50;;;8.40;90.50;;;;;;5075671;28;20945;-79
2024/01/29 02:57:23;;;;;;;3.90;1.60;;;8.30;92.10;;;;;;5074031;28;20549;-82
2024/01/29 02:59:50;;;;;;;4.97;1.57;;;8.30;93.60;;;;;;5070868;28;20457;-83
2024/01/29 03:02:17;;;;;;;2.53;1.50;;;8.10;97.90;;;;;;5073392;28;20530;-83
2024/01/29 03:04:44;;;;;;;2.40;1.47;;;8.10;98.70;;;;;;5074613;28;20467;-82
2024/01/29 03:07:11;;;;;;;3.13;1.70;;;7.90;99.90;;;;;;5075524;28;20526;-82
2024/01/29 03:09:38;;;;;;;3.60;2.00;;;7.90;99.90;;;;;;5075513;28;20508;-84
2024/01/29 03:12:05;;;;;;;3.10;1.60;;;7.90;99.90;;;;;;5075467;28;20471;-83
2024/01/29 03:14:33;;;;;;;5.37;1.20;;;7.80;99.90;;;;;;5074834;28;20537;-82
2024/01/29 03:17:00;;;;;;;2.40;1.37;;;7.70;99.90;;;;;;5074867;28;20557;-82
2024/01/29 03:19:27;;;;;;;2.97;1.63;;;7.70;99.90;;;;;;5074973;28;20560;-84
2024/01/29 03:21:54;;;;;;;3.23;1.70;;;7.80;99.90;;;;;;5076143;28;20950;-83
2024/01/29 03:24:21;;;;;;;2.30;1.70;;;7.70;99.90;;;;;;5081651;28;20449;-83
2024/01/29 03:26:50;;;;;;;3.67;1.50;;;7.70;99.90;;;;;;5077238;28;20859;-80
2024/01/29 03:29:17;;;;;;;3.30;1.90;;;7.70;99.90;;;;;;5077168;28;20468;-83
2024/01/29 03:31:45;;;;;;;3.10;1.60;;;7.60;99.90;;;;;;5077994;28;20482;-84
2024/01/29 03:34:12;;;;;;;2.50;1.67;;;7.60;99.90;;;;;;5078096;28;20480;-83
2024/01/29 03:36:38;;;;;;;4.33;1.90;;;7.50;99.90;;;;;;5076993;28;20456;-83
2024/01/29 03:39:05;;;;;;;2.70;1.50;;;7.50;99.90;;;;;;5077437;28;20568;-84
2024/01/29 03:41:34;;;;;;;2.87;1.67;;;7.50;99.90;;;;;;5069719;28;20522;-83
2024/01/29 03:44:01;;;;;;;3.60;1.80;;;7.50;99.90;;;;;;5076716;28;20536;-83
2024/01/29 03:46:27;;;;;;;3.47;1.43;;;7.50;99.90;;;;;;5076041;28;20549;-84
2024/01/29 03:48:56;;;;;;;2.50;1.50;;;7.50;99.90;;;;;;5076939;28;20499;-82
2024/01/29 03:51:22;;;;;;;2.53;1.80;;;7.50;99.90;;;;;;5076480;28;20484;-83
2024/01/29 03:53:49;;;;;;;2.30;1.33;;;7.60;99.90;;;;;;5078084;28;20458;-82
2024/01/29 03:56:16;;;;;;;4.07;1.90;;;7.60;99.90;;;;;;5071616;28;20470;-84
2024/01/29 03:58:43;;;;;;;2.90;1.70;;;7.50;99.90;;;;;;5079236;28;20481;-83
2024/01/29 04:01:10;;;;;;;3.47;1.53;;;7.50;99.90;;;;;;5080198;28;20457;-84
2024/01/29 04:03:39;;;;;;;3.80;1.63;;;7.50;99.90;;;;;;5079510;28;20453;-83
2024/01/29 04:06:08;;;;;;;6.97;2.20;;;7.50;99.90;;;;;;5072039;28;20822;-83
2024/01/29 04:08:35;;;;;;;2.50;1.70;;;7.50;99.90;;;;;;5071041;28;20484;-84
2024/01/29 04:11:01;;;;;;;3.10;1.47;;;7.40;99.90;;;;;;5078481;28;20985;-82
2024/01/29 04:13:34;;;;;;;2.43;1.60;;;7.40;99.90;;;;;;5078975;28;20462;-82
2024/01/29 04:16:01;;;;;;;4.63;2.17;;;7.40;99.90;;;;;;5078484;28;20461;-82
2024/01/29 04:18:28;;;;;;;2.30;1.40;;;7.40;99.90;;;;;;5078566;28;20489;-84
2024/01/29 04:20:54;;;;;;;1.60;1.00;;;7.30;99.90;;;;;;5077988;28;20455;-84
2024/01/29 04:23:22;;;;;;;2.47;1.70;;;7.30;99.90;;;;;;5076942;28;20543;-84
2024/01/29 04:25:49;;;;;;;3.23;1.53;;;7.20;99.90;;;;;;5072676;28;20486;-82
2024/01/29 04:28:16;;;;;;;2.90;1.53;;;7.10;99.90;;;;;;5078354;28;20577;-84
2024/01/29 04:30:43;;;;;;;3.70;2.10;;;7.00;99.90;;;;;;5071442;28;20864;-83
2024/01/29 04:33:10;;;;;;;3.63;2.00;;;6.90;99.90;;;;;;5077604;28;20461;-84
2024/01/29 04:35:37;;;;;;;3.67;1.87;;;6.80;99.90;;;;;;5070332;28;20555;-81
2024/01/29 04:38:04;;;;;;;2.90;1.43;;;6.60;99.90;;;;;;5073640;28;20550;-82
2024/01/29 04:40:39;;;;;;;2.63;1.97;;;6.70;99.90;;;;;;5067862;28;20481;-83
2024/01/29 04:43:05;;;;;;;4.00;1.63;;;6.70;99.90;;;;;;5071311;28;20458;-83
2024/01/29 04:45:32;;;;;;;2.20;1.47;;;6.70;99.90;;;;;;5073718;28;20447;-83
2024/01/29 04:47:59;;;;;;;3.53;1.67;;;6.70;99.90;;;;;;5072242;28;20820;-82
2024/01/29 04:50:26;;;;;;;3.20;1.60;;;6.70;99.90;;;;;;5075839;28;20494;-83
2024/01/29 04:52:53;;;;;;;3.10;1.83;;;6.60;99.90;;;;;;5078230;28;20455;-83
2024/01/29 04:55:20;;;;;;;2.83;1.70;;;6.60;99.90;;;;;;5079017;28;20471;-83
2024/01/29 04:57:48;;;;;;;3.50;1.70;;;6.60;99.90;;;;;;5073920;28;20498;-83
2024/01/29 05:00:15;;;;;;;4.37;1.80;;;6.50;99.90;;;;;;5075976;28;20957;-82
2024/01/29 05:02:41;;;;;;;5.07;1.50;;;6.50;99.90;;;;;;5079132;28;20452;-83
2024/01/29 05:05:08;;;;;;;3.63;1.87;;;6.40;99.90;;;;;;5076305;28;20567;-82
2024/01/29 05:07:35;;;;;;;6.17;1.57;;;6.40;99.90;;;;;;5078222;28;20555;-84
2024/01/29 05:10:02;;;;;;;3.93;1.60;;;6.50;99.90;;;;;;5078880;28;21003;-83
2024/01/29 05:12:30;;;;;;;2.63;1.80;;;6.50;99.90;;;;;;5081610;28;20451;-84
2024/01/29 05:14:58;;;;;;;2.87;1.80;;;6.50;99.90;;;;;;5082883;28;20462;-84
2024/01/29 05:17:25;;;;;;;2.70;1.63;;;6.40;99.90;;;;;;5083304;28;20541;-83
2024/01/29 05:19:52;;;;;;;3.17;1.53;;;6.40;99.90;;;;;;5083202;28;20468;-84
2024/01/29 05:22:19;;;;;;;3.60;1.80;;;6.30;99.90;;;;;;5076913;28;20462;-84
2024/01/29 05:24:45;;;;;;;5.43;1.80;;;6.30;99.90;;;;;;5077883;28;20460;-84
2024/01/29 05:27:15;;;;;;;2.87;1.80;;;6.20;99.90;;;;;;5078128;28;20465;-81
2024/01/29 05:29:42;;;;;;;3.60;2.03;;;6.20;99.90;;;;;;5076226;28;20525;-83
2024/01/29 05:32:10;;;;;;;5.37;1.60;;;6.10;99.90;;;;;;5077263;28;20484;-81
2024/01/29 05:34:37;;;;;;;2.87;1.60;;;6.10;99.90;;;;;;5078605;28;20455;-79
2024/01/29 05:37:04;;;;;;;4.40;2.20;;;6.10;99.90;;;;;;5076043;28;20492;-78
2024/01/29 05:39:31;;;;;;;3.40;1.83;;;6.00;99.90;;;;;;5078996;28;20468;-81
2024/01/29 05:41:58;;;;;;;8.10;3.60;;;6.00;99.90;;;;;;5078468;28;21147;-80
2024/01/29 05:44:24;;;;;;;3.70;2.23;;;6.00;99.90;;;;;;5078827;28;20478;-80
2024/01/29 05:46:51;;;;;;;5.33;3.20;;;6.00;99.90;;;;;;5078111;28;20455;-81
2024/01/29 05:49:21;;;;;;;4.40;3.33;;;5.90;99.90;;;;;;5078799;28;20824;-81
2024/01/29 05:51:48;;;;;;;7.33;3.20;;;5.80;99.90;;;;;;5077710;28;20553;-81
2024/01/29 05:54:14;;;;;;;4.60;3.20;;;5.80;99.90;;;;;;5079725;28;20457;-81
2024/01/29 05:56:42;;;;;;;7.10;3.40;;;5.70;99.90;;;;;;5078620;28;20545;-83
2024/01/29 05:59:09;;;;;;;3.80;2.27;;;5.70;99.90;;;;;;5076744;28;20478;-82
2024/01/29 06:01:36;;;;;;;4.07;2.53;;;5.70;99.90;;;;;;5073446;28;20990;-83
2024/01/29 06:04:03;;;;;;;4.70;2.50;;;5.60;99.90;;;;;;5084196;28;20557;-83
2024/01/29 06:06:31;;;;;;;3.53;2.10;;;5.60;99.90;;;;;;5084712;28;20486;-84
2024/01/29 06:08:58;;;;;;;4.57;2.30;;;5.50;99.90;;;;;;5072037;28;20502;-82
2024/01/29 06:11:25;;;;;;;3.83;1.93;;;5.50;99.90;;;;;;5066852;28;20586;-79
2024/01/29 06:13:51;;;;;;;4.63;2.30;;;5.50;99.90;;;;;;5072280;28;20911;-82
2024/01/29 06:16:22;;;;;;;2.67;1.67;;;5.50;99.90;;;;;;5070990;28;20454;-81
2024/01/29 06:18:49;;;;;;;3.83;2.30;;;5.50;99.90;;;;;;5071210;28;20477;-80
2024/01/29 06:21:15;;;;;;;3.30;1.93;;;5.40;99.90;;;;;;5076541;28;20515;-80
2024/01/29 06:23:43;;;;;;;3.33;2.23;;;5.40;99.90;;;;;;5075552;28;20515;-81
2024/01/29 06:26:11;;;;;;;3.73;2.20;;;5.30;99.90;;;;;;5074218;28;20534;-82
2024/01/29 06:28:37;;;;;;;3.47;2.37;;;5.40;99.90;;;;;;5068327;28;20485;-81
2024/01/29 06:31:04;;;;;;;4.83;2.43;;;5.40;99.90;;;;;;5064241;28;20536;-83
2024/01/29 06:33:31;;;;;;;2.90;2.20;;;5.30;99.90;;;;;;5065943;28;20449;-82
2024/01/29 06:35:59;;;;;;;4.10;2.40;;;5.20;99.90;;;;;;5056908;28;20439;-83
2024/01/29 06:38:26;;;;;;;3.10;2.03;;;5.30;99.90;;;;;;5066466;28;20487;-83
2024/01/29 06:40:54;;;;;;;4.10;2.57;;;5.20;99.90;;;;;;5066241;28;20442;-80
2024/01/29 06:43:21;;;;;;;3.77;2.57;;;5.20;99.90;;;;;;5068103;28;20454;-82
2024/01/29 06:45:48;;;;;;;3.97;2.33;;;5.10;99.90;;;;;;5066245;28;20448;-81
2024/01/29 06:48:15;;;;;;;3.93;2.90;;;5.10;99.90;;;;;;5065626;28;20487;-82
2024/01/29 06:50:42;;;;;;;4.03;2.17;;;5.10;99.90;;;;;;5068762;28;20461;-83
2024/01/29 06:53:08;;;;;;;6.03;2.67;;;5.00;99.90;;;;;;5068124;28;20462;-82
2024/01/29 06:55:35;;;;;;;7.70;2.60;;;5.00;99.90;;;;;;5065388;28;20443;-82
2024/01/29 06:58:03;;;;;;;5.03;2.60;;;5.00;99.90;;;;;;5069913;28;20460;-83
2024/01/29 07:00:30;;;;;;;2.90;1.77;;;5.00;99.90;;;;;;5066534;28;20997;-81
2024/01/29 07:02:57;;;;;;;3.60;2.60;;;5.10;99.90;;;;;;5069664;28;20475;-83
2024/01/29 07:05:24;;;;;;;2.50;1.90;;;5.00;99.90;;;;;;5069133;28;20534;-83
2024/01/29 07:07:51;;;;;;;3.00;2.10;;;5.00;99.90;;;;;;5067594;28;20572;-83
2024/01/29 07:10:17;;;;;;;6.07;2.80;;;5.00;99.90;;;;;;5070709;28;20492;-82
2024/01/29 07:12:44;;;;;;;2.60;1.70;;;5.00;99.90;;;;;;5071485;28;20491;-82
2024/01/29 07:15:15;;;;;;;2.97;2.00;;;5.00;99.90;;;;;;5073384;28;20537;-83
2024/01/29 07:17:42;;;;;;;4.40;2.50;;;5.00;99.90;;;;;;5075542;28;20462;-82
2024/01/29 07:20:10;;;;;;;5.40;2.43;;;5.00;99.90;;;;;;5073893;28;20464;-83
2024/01/29 07:22:38;;;;;;;3.23;2.10;;;5.00;99.90;;;;;;5072620;28;20961;-82
2024/01/29 07:25:05;;;;;;;4.63;2.67;;;5.00;99.90;;;;;;5068862;28;20462;-82
2024/01/29 07:27:32;;;;;;;3.93;2.10;;;5.00;99.90;;;;;;5076576;28;20552;-83
2024/01/29 07:29:59;;;;;;;4.47;2.10;;;5.00;99.90;;;;;;5081187;28;20461;-83
2024/01/29 07:32:31;;;;;;;3.50;2.33;;;5.00;99.90;;;;;;5084823;28;20522;-83
2024/01/29 07:34:58;;;;;;;5.20;2.37;;;4.90;99.90;;;;;;5081177;28;20490;-83
2024/01/29 07:37:25;;;;;;;4.87;3.00;;;4.90;99.90;;;;;;5087180;28;20469;-84
2024/01/29 07:39:52;;;;;;;10.57;3.13;;;4.90;99.90;;;;;;5083439;28;20451;-83
2024/01/29 07:42:19;;;;;;;4.40;3.63;;;4.90;99.90;;;;;;5084416;28;20465;-83
2024/01/29 07:44:46;;;;;;;5.70;3.30;;;4.90;99.90;;;;;;5082324;28;20439;-82
2024/01/29 07:47:13;;;;;;;4.10;2.63;;;5.00;99.90;;;;;;5079059;28;20511;-83
2024/01/29 07:49:41;;;;;;;6.20;3.60;;;5.00;99.90;;;;;;5076608;28;20502;-84
2024/01/29 07:52:09;;;;;;;3.40;2.67;;;5.10;99.90;;;;;;5075643;28;20494;-83
2024/01/29 07:54:36;;;;;;;3.43;2.23;;;5.20;99.90;;;;;;5075350;28;20508;-83
2024/01/29 07:57:12;;;;;;;4.97;3.50;;;5.20;99.90;;;;;;5072786;28;20506;-83
2024/01/29 07:59:39;;;;;;;4.67;3.20;;;5.20;99.90;;;;;;5074110;28;20537;-83
2024/01/29 08:02:06;;;;;;;7.73;3.40;;;5.40;99.90;;;;;;5074603;28;20514;-83
2024/01/29 08:04:33;;;;;;;5.10;2.83;;;5.50;99.90;;;;;;5072331;28;20453;-84
2024/01/29 08:07:02;;;;;;;4.57;2.73;;;5.50;99.90;;;;;;5076359;28;20479;-83
2024/01/29 08:09:28;;;;;;;4.27;2.97;;;5.60;99.90;;;;;;5069241;28;21018;-83
2024/01/29 08:11:55;;;;;;;3.97;2.83;;;5.70;99.90;;;;;;5071061;28;20570;-86
2024/01/29 08:14:22;;;;;;;3.53;2.63;;;5.80;99.90;;;;;;5065448;28;20448;-87
2024/01/29 08:16:49;;;;;;;5.70;3.50;;;5.80;99.90;;;;;;5070643;28;20533;-86
2024/01/29 08:19:16;;;;;;;4.10;2.73;;;5.90;99.90;;;;;;5071196;28;20542;-85
2024/01/29 08:21:43;;;;;;;4.97;3.27;;;6.00;99.90;;;;;;5072115;28;20596;-87
2024/01/29 08:24:12;;;;;;;5.27;3.30;;;6.10;99.90;;;;;;5074949;28;20440;-86
2024/01/29 08:26:39;;;;;;;5.70;3.40;;;6.20;99.90;;;;;;5077020;28;20845;-83
2024/01/29 08:29:06;;;;;;;6.40;3.37;;;6.30;99.90;;;;;;5076570;28;20481;-82
2024/01/29 08:31:33;;;;;;;4.30;2.93;;;6.40;99.90;;;;;;5076248;28;20511;-83
2024/01/29 08:33:59;;;;;;;6.10;2.73;;;6.40;99.90;;;;;;5079912;28;20486;-83
2024/01/29 08:36:26;;;;;;;5.03;3.90;;;6.50;99.90;;;;;;5085352;28;20502;-84
2024/01/29 08:38:55;;;;;;;5.73;3.00;;;6.50;99.90;;;;;;5076868;28;20475;-83
2024/01/29 08:41:24;;;;;;;5.43;3.30;;;6.70;99.90;;;;;;5077074;28;20499;-83
2024/01/29 08:43:51;;;;;;;5.20;3.43;;;6.80;99.90;;;;;;5079997;28;20452;-83
2024/01/29 08:46:18;;;;;;;7.30;3.47;;;6.90;99.90;;;;;;5073383;28;20446;-83
2024/01/29 08:48:44;;;;;;;5.50;2.90;;;7.10;99.90;;;;;;5076613;28;20542;-83
2024/01/29 08:51:11;;;;;;;4.33;3.00;;;7.20;99.90;;;;;;5075012;28;20484;-82
2024/01/29 08:53:38;;;;;;;8.50;3.40;;;7.30;99.90;;;;;;5080671;28;20470;-82
2024/01/29 08:56:07;;;;;;;5.17;3.00;;;7.50;99.90;;;;;;5075718;28;20558;-82
2024/01/29 08:58:35;;;;;;;6.97;3.30;;;7.70;99.90;;;;;;5074576;28;20473;-84
2024/01/29 09:01:02;;;;;;;5.60;3.53;;;7.80;99.90;;;;;;5074570;28;21151;-83
2024/01/29 09:03:29;;;;;;;6.13;4.30;;;7.90;99.90;;;;;;5078363;28;20875;-84
2024/01/29 09:05:59;;;;;;;8.30;6.03;;;8.10;99.90;;;;;;5079930;28;20557;-85
2024/01/29 09:08:28;;;;;;;4.57;3.27;;;8.20;99.90;;;;;;5090663;28;20464;-83
2024/01/29 09:10:55;;;;;;;4.33;2.70;;;8.30;99.90;;;;;;5088982;28;20448;-84
2024/01/29 09:13:21;;;;;;;8.30;4.50;;;8.40;99.90;;;;;;5094541;28;20469;-88
2024/01/29 09:15:50;;;;;;;4.47;2.80;;;8.50;99.90;;;;;;5086100;28;20455;-82
2024/01/29 09:18:17;;;;;;;7.67;3.50;;;8.60;99.90;;;;;;5086644;28;20548;-83
2024/01/29 09:20:44;;;;;;;7.27;3.70;;;8.80;99.90;;;;;;5078934;28;20455;-84
2024/01/29 09:23:13;;;;;;;4.90;3.00;;;8.80;99.90;;;;;;5087991;28;20492;-81
2024/01/29 09:25:43;;;;;;;6.90;3.50;;;9.00;99.90;;;;;;5076211;28;20455;-82
2024/01/29 09:28:10;;;;;;;8.17;3.20;;;9.10;99.90;;;;;;5086111;28;20490;-84
2024/01/29 09:30:37;;;;;;;6.47;3.63;;;9.20;99.90;;;;;;5082111;28;20476;-82
2024/01/29 09:33:05;;;;;;;5.80;3.20;;;9.40;99.90;;;;;;5083708;28;20578;-80
2024/01/29 09:35:33;;;;;;;3.67;3.10;;;9.50;99.90;;;;;;5078353;28;20458;-86
2024/01/29 09:38:00;;;;;;;3.93;3.00;;;9.50;99.90;;;;;;5074175;28;20505;-81
2024/01/29 09:40:27;;;;;;;6.77;3.50;;;9.70;99.90;;;;;;5075165;28;20524;-83
2024/01/29 09:42:56;;;;;;;5.63;3.33;;;9.70;99.90;;;;;;5072632;28;20455;-83
2024/01/29 09:45:24;;;;;;;4.73;2.70;;;9.70;99.90;;;;;;5068090;28;20873;-83
2024/01/29 09:47:55;;;;;;;4.10;3.07;;;9.80;99.90;;;;;;5056926;28;20983;-82
2024/01/29 09:50:24;;;;;;;4.30;3.13;;;9.80;99.90;;;;;;5052666;28;20505;-82
2024/01/29 09:52:54;;;;;;;4.80;2.90;;;9.80;99.90;;;;;;5054907;28;20787;-82
2024/01/29 09:55:21;;;;;;;5.30;3.20;;;9.80;99.90;;;;;;5057639;28;20475;-81
2024/01/29 09:57:48;;;;;;;5.43;3.10;;;9.80;99.90;;;;;;5065386;28;20526;-81
2024/01/29 10:00:16;;;;;;;48.97;24.47;;;9.80;99.90;;;;;;5054268;28;20457;-81
2024/01/29 10:02:45;;;;;;;21.07;9.40;;;9.90;99.90;;;;;;5057030;28;20455;-83
2024/01/29 10:05:13;;;;;;;8.60;5.40;;;9.90;99.90;;;;;;5071351;28;20439;-80
2024/01/29 10:07:42;;;;;;;12.87;6.33;;;10.00;99.90;;;;;;5059623;28;20562;-82
2024/01/29 10:10:10;;;;;;;4.90;3.57;;;10.00;99.90;;;;;;5061698;28;20474;-82
2024/01/29 10:12:36;;;;;;;5.63;3.40;;;10.10;99.90;;;;;;5069699;28;20483;-82
2024/01/29 10:15:04;;;;;;;5.47;2.93;;;10.20;99.90;;;;;;5072178;28;20494;-81
2024/01/29 10:17:31;;;;;;;5.90;3.20;;;10.30;99.90;;;;;;5069826;28;20502;-82
2024/01/29 10:19:59;;;;;;;4.40;3.00;;;10.40;99.90;;;;;;5074248;28;20469;-83
2024/01/29 10:22:26;;;;;;;4.67;2.50;;;10.40;99.90;;;;;;5075999;28;20440;-82
2024/01/29 10:25:02;;;;;;;3.93;2.57;;;10.50;99.90;;;;;;5073642;28;20468;-83
2024/01/29 10:27:29;;;;;;;6.00;2.93;;;10.60;99.90;;;;;;5053061;28;20482;-83
2024/01/29 10:29:56;;;;;;;4.73;2.40;;;10.80;99.90;;;;;;5070495;28;21021;-84
2024/01/29 10:32:24;;;;;;;6.13;3.00;;;10.90;99.90;;;;;;5069576;28;20571;-83
2024/01/29 10:34:50;;;;;;;6.80;3.27;;;11.00;99.90;;;;;;5066717;28;20439;-82
2024/01/29 10:37:17;;;;;;;8.50;3.13;;;11.10;99.90;;;;;;5067201;28;20466;-81
2024/01/29 10:39:45;;;;;;;4.20;2.80;;;11.20;99.90;;;;;;5072409;28;20618;-83
2024/01/29 10:42:15;;;;;;;4.00;2.90;;;11.20;99.90;;;;;;5074962;28;20471;-81
2024/01/29 10:44:43;;;;;;;4.67;2.97;;;11.30;99.90;;;;;;5076473;28;20487;-82
2024/01/29 10:47:18;;;;;;;4.20;2.93;;;11.40;99.90;;;;;;5079551;28;20465;-82
2024/01/29 10:49:46;;;;;;;3.90;2.70;;;11.60;99.90;;;;;;5075055;28;20539;-82
2024/01/29 10:52:15;;;;;;;4.07;2.90;;;11.80;99.90;;;;;;5062466;28;20485;-80
2024/01/29 10:54:43;;;;;;;4.60;2.90;;;12.10;99.90;;;;;;5070484;28;20467;-83
2024/01/29 10:57:11;;;;;;;3.17;2.40;;;12.20;99.90;;;;;;5073891;28;20453;-82
2024/01/29 10:59:43;;;;;;;7.10;3.07;;;12.40;99.90;;;;;;5067232;28;20678;-81
2024/01/29 11:02:13;;;;;;;3.80;2.80;;;13.00;99.90;;;;;;5062352;28;20444;-80
2024/01/29 11:04:40;;;;;;;3.90;2.63;;;13.70;99.90;;;;;;5073165;28;20431;-82
2024/01/29 11:07:12;;;;;;;5.33;2.67;;;14.20;99.90;;;;;;5075333;28;20511;-79
2024/01/29 11:09:45;;;;;;;5.03;2.93;;;14.30;99.00;;;;;;5073702;28;20455;-79
2024/01/29 11:12:13;;;;;;;3.47;2.87;;;14.00;98.30;;;;;;5071667;28;20491;-80
2024/01/29 11:14:47;;;;;;;5.00;3.40;;;13.90;97.50;;;;;;5071105;28;20449;-82
2024/01/29 11:17:15;;;;;;;5.50;3.03;;;13.80;97.60;;;;;;5070358;28;20443;-80
2024/01/29 11:19:43;;;;;;;5.00;3.60;;;13.80;97.60;;;;;;5070832;28;20528;-81
2024/01/29 11:22:10;;;;;;;4.03;2.43;;;13.90;97.90;;;;;;5075250;28;20455;-81
2024/01/29 11:24:37;;;;;;;3.23;2.67;;;13.90;97.50;;;;;;5074501;28;20471;-80
2024/01/29 11:27:08;;;;;;;4.93;3.57;;;14.40;96.50;;;;;;5072736;28;20485;-81
2024/01/29 11:29:37;;;;;;;5.83;3.37;;;14.90;95.60;;;;;;5072397;28;20475;-81
2024/01/29 11:32:06;;;;;;;6.00;3.30;;;15.20;94.80;;;;;;5072986;28;20525;-81
2024/01/29 11:34:33;;;;;;;3.70;2.80;;;15.90;93.60;;;;;;5077839;28;20515;-82
2024/01/29 11:37:00;;;;;;;4.77;2.63;;;16.40;93.10;;;;;;5072605;28;20882;-79
2024/01/29 11:39:27;;;;;;;5.17;2.53;;;17.60;91.30;;;;;;5070702;28;20564;-82
2024/01/29 11:41:54;;;;;;;4.60;2.80;;;19.10;87.60;;;;;;5066412;28;20475;-82
2024/01/29 11:44:22;;;;;;;4.07;2.93;;;20.50;83.30;;;;;;5070625;28;20549;-82
2024/01/29 11:46:49;;;;;;;9.30;3.40;;;22.10;80.10;;;;;;5064599;28;20973;-80
2024/01/29 11:49:25;;;;;;;3.60;3.00;;;22.70;74.30;;;;;;5064931;28;20472;-80
2024/01/29 11:51:53;;;;;;;7.07;3.50;;;22.70;68.40;;;;;;5063280;28;20459;-79
2024/01/29 11:54:23;;;;;;;4.80;3.07;;;21.90;67.60;;;;;;5066989;28;21301;-80
2024/01/29 11:56:50;;;;;;;4.90;2.87;;;22.30;68.60;;;;;;5064844;28;20451;-82
2024/01/29 11:59:17;;;;;;;3.50;2.80;;;21.80;67.90;;;;;;5067291;28;20549;-83
2024/01/29 12:01:44;;;;;;;3.80;3.17;;;21.40;68.20;;;;;;5069925;28;20482;-83
2024/01/29 12:04:11;;;;;;;5.30;3.60;;;21.70;69.20;;;;;;5064480;28;20453;-83
2024/01/29 12:06:40;;;;;;;4.73;3.40;;;21.60;67.70;;;;;;5065331;28;20512;-84
2024/01/29 12:09:09;;;;;;;6.20;3.23;;;22.00;67.70;;;;;;5067079;28;20545;-82
2024/01/29 12:11:36;;;;;;;3.30;2.37;;;22.50;66.70;;;;;;5072182;28;20446;-84
2024/01/29 12:14:04;;;;;;;4.03;3.23;;;22.70;67.20;;;;;;5073851;28;20526;-83
2024/01/29 12:16:31;;;;;;;5.70;3.30;;;23.10;66.70;;;;;;5071469;28;20459;-84
2024/01/29 12:18:59;;;;;;;3.73;3.17;;;22.50;65.00;;;;;;5076630;28;20573;-85
2024/01/29 12:21:26;;;;;;;4.30;2.87;;;22.50;64.70;;;;;;5079611;28;20528;-84
2024/01/29 12:23:56;;;;;;;3.50;2.80;;;23.30;65.70;;;;;;5068099;28;20966;-84
2024/01/29 12:26:28;;;;;;;6.70;3.30;;;23.00;63.10;;;;;;5078271;28;20458;-84
2024/01/29 12:28:55;;;;;;;6.47;3.20;;;23.30;63.40;;;;;;5073874;28;20567;-85
2024/01/29 12:31:25;;;;;;;4.20;3.07;;;24.20;63.60;;;;;;5073876;28;20463;-82
2024/01/29 12:33:53;;;;;;;5.03;3.20;;;23.30;62.60;;;;;;5069114;28;20486;-81
2024/01/29 12:36:21;;;;;;;5.17;3.27;;;22.70;62.60;;;;;;5069724;28;20533;-82
2024/01/29 12:38:53;;;;;;;8.23;4.93;;;22.80;64.30;;;;;;5071399;28;21017;-82
2024/01/29 12:41:22;;;;;;;5.30;3.40;;;22.60;65.50;;;;;;5069734;28;20463;-83
2024/01/29 12:43:51;;;;;;;8.27;3.20;;;22.60;63.90;;;;;;5072305;28;20443;-83
2024/01/29 12:46:19;;;;;;;5.00;3.23;;;21.60;64.10;;;;;;5075278;28;20449;-82
2024/01/29 12:48:46;;;;;;;5.80;3.30;;;22.00;65.40;;;;;;5072414;28;20511;-83
2024/01/29 12:51:14;;;;;;;4.67;2.33;;;21.80;65.90;;;;;;5073765;28;20503;-83
2024/01/29 12:53:43;;;;;;;6.03;3.60;;;21.00;65.90;;;;;;5070083;28;20478;-82
2024/01/29 12:56:10;;;;;;;3.90;2.97;;;20.50;66.90;;;;;;5073151;28;20454;-83